Time;durP1;ratioP1;P1;durP2;ratioP2;P2;SDS_P1;SDS_P2;PMS_P1;PMS_P2;Temp;Humidity;BMP_temperature;BMP_pressure;BME280_temperature;BME280_humidity;BME280_pressure;Samples;Min_cycle;Max_cycle;Signal;HPM_P1;HPM_P2
2022/02/27 00:01:01;;;;;;;26.90;13.20;;;;;;;4.47;75.29;100441.41;5068741;28;20021;-50
2022/02/27 00:03:26;;;;;;;21.58;10.82;;;;;;;4.21;76.09;100451.81;5052635;28;20048;-48
2022/02/27 00:05:52;;;;;;;27.52;12.77;;;;;;;4.21;76.73;100459.72;5052206;28;20083;-51
2022/02/27 00:08:18;;;;;;;25.63;13.50;;;;;;;4.36;76.27;100439.81;5052568;28;20052;-48
2022/02/27 00:10:43;;;;;;;27.35;13.27;;;;;;;4.30;76.32;100435.97;5052954;28;20020;-48
2022/02/27 00:13:08;;;;;;;29.60;14.43;;;;;;;4.00;77.79;100426.50;5053076;28;20080;-48
2022/02/27 00:15:34;;;;;;;26.02;12.73;;;;;;;4.02;78.29;100426.38;5053305;28;20032;-49
2022/02/27 00:17:59;;;;;;;23.00;12.15;;;;;;;3.84;78.88;100421.00;5052821;28;20025;-51
2022/02/27 00:20:25;;;;;;;24.83;13.00;;;;;;;3.99;79.47;100410.84;5052896;28;20017;-50
2022/02/27 00:22:50;;;;;;;25.67;13.80;;;;;;;4.03;79.13;100406.94;5052896;28;20053;-51
2022/02/27 00:25:16;;;;;;;29.08;13.70;;;;;;;4.19;77.93;100396.63;5052819;28;20415;-49
2022/02/27 00:27:42;;;;;;;24.77;13.82;;;;;;;3.89;79.34;100393.28;5052977;28;20028;-50
2022/02/27 00:30:08;;;;;;;27.33;13.57;;;;;;;3.92;78.90;100407.94;5053312;28;20017;-51
2022/02/27 00:32:34;;;;;;;27.35;13.65;;;;;;;3.96;78.94;100392.69;5052712;28;20029;-48
2022/02/27 00:34:59;;;;;;;31.08;13.60;;;;;;;3.71;80.25;100392.34;5053867;28;20025;-48
2022/02/27 00:37:25;;;;;;;27.75;14.80;;;;;;;3.74;80.41;100401.78;5072097;28;20142;-52
2022/02/27 00:39:50;;;;;;;27.60;12.95;;;;;;;3.50;81.12;100396.03;5072621;28;20457;-48
2022/02/27 00:42:15;;;;;;;27.20;12.93;;;;;;;3.51;82.00;100408.19;5072526;28;20020;-52
2022/02/27 00:44:41;;;;;;;29.15;14.18;;;;;;;3.92;80.46;100410.56;5072241;28;20047;-48
2022/02/27 00:47:07;;;;;;;26.55;13.88;;;;;;;3.93;80.05;100406.97;5072142;28;20028;-48
2022/02/27 00:49:33;;;;;;;28.42;13.73;;;;;;;3.96;79.74;100398.81;5072049;28;20024;-49
2022/02/27 00:51:58;;;;;;;30.42;14.68;;;;;;;4.03;80.10;100407.75;5072772;28;20032;-52
2022/02/27 00:54:24;;;;;;;29.92;14.48;;;;;;;3.74;80.77;100402.59;5072825;28;20369;-48
2022/02/27 00:56:49;;;;;;;29.13;14.65;;;;;;;3.74;81.62;100397.34;5072624;28;20025;-49
2022/02/27 00:59:15;;;;;;;31.02;14.00;;;;;;;3.67;81.54;100404.16;5072783;28;20107;-49
2022/02/27 01:01:40;;;;;;;32.13;15.55;;;;;;;4.01;80.77;100411.53;5062968;28;20036;-48
2022/02/27 01:04:06;;;;;;;28.92;14.60;;;;;;;4.11;79.54;100409.69;5052415;28;20029;-37
2022/02/27 01:06:31;;;;;;;26.70;12.65;;;;;;;3.81;80.52;100411.59;5052318;28;20087;-48
2022/02/27 01:08:59;;;;;;;30.75;13.82;;;;;;;4.09;80.13;100406.34;5052451;28;20029;-50
2022/02/27 01:11:26;;;;;;;31.58;15.30;;;;;;;4.22;79.30;100391.03;5052138;28;20037;-48
2022/02/27 01:13:52;;;;;;;27.35;14.45;;;;;;;4.03;79.67;100391.97;5051890;28;20044;-50
2022/02/27 01:16:18;;;;;;;26.30;13.85;;;;;;;4.04;79.61;100409.44;5052286;28;20090;-48
2022/02/27 01:18:43;;;;;;;31.95;14.20;;;;;;;4.04;79.78;100419.97;5051996;28;20025;-50
2022/02/27 01:21:09;;;;;;;29.63;14.60;;;;;;;4.15;79.62;100432.16;5052072;28;20032;-49
2022/02/27 01:23:34;;;;;;;28.02;14.27;;;;;;;4.17;79.05;100426.72;5051684;28;20159;-51
2022/02/27 01:26:00;;;;;;;27.77;14.40;;;;;;;4.27;78.03;100412.53;5051706;28;20021;-49
2022/02/27 01:28:25;;;;;;;33.20;14.27;;;;;;;4.22;78.88;100419.22;5052268;28;20024;-49
2022/02/27 01:30:50;;;;;;;29.48;14.55;;;;;;;4.18;78.72;100429.19;5052197;28;20032;-51
2022/02/27 01:33:16;;;;;;;30.40;14.98;;;;;;;4.23;78.60;100420.88;5051828;28;20029;-52
2022/02/27 01:35:41;;;;;;;27.85;15.13;;;;;;;4.45;78.45;100422.28;5058800;28;20447;-49
2022/02/27 01:38:07;;;;;;;33.42;15.10;;;;;;;4.37;78.64;100424.81;5071247;28;20466;-52
2022/02/27 01:40:32;;;;;;;32.58;15.52;;;;;;;4.30;78.77;100412.25;5062177;28;20021;-49
2022/02/27 01:42:59;;;;;;;31.30;15.82;;;;;;;4.31;79.27;100424.44;5051647;28;20133;-51
2022/02/27 01:45:24;;;;;;;33.35;16.35;;;;;;;4.06;80.41;100418.03;5050911;28;20024;-37
2022/02/27 01:47:50;;;;;;;29.33;15.80;;;;;;;4.18;80.35;100397.59;5051514;28;20020;-38
2022/02/27 01:50:15;;;;;;;29.92;14.68;;;;;;;4.06;80.46;100406.66;5051593;28;20025;-37
2022/02/27 01:52:40;;;;;;;32.70;16.40;;;;;;;4.32;79.99;100391.00;5051572;28;20025;-37
2022/02/27 01:55:06;;;;;;;31.33;15.48;;;;;;;4.04;81.46;100375.19;5051573;28;20025;-37
2022/02/27 01:57:32;;;;;;;31.67;15.52;;;;;;;3.90;81.56;100394.94;5051783;28;20033;-38
2022/02/27 01:59:57;;;;;;;37.40;16.40;;;;;;;4.10;81.31;100386.97;5051014;28;20026;-38
2022/02/27 02:02:23;;;;;;;28.08;13.75;;;;;;;3.92;81.31;100392.16;5051002;28;20032;-38
2022/02/27 02:04:48;;;;;;;27.88;14.10;;;;;;;3.69;82.47;100394.31;5051068;28;20036;-38
2022/02/27 02:07:14;;;;;;;32.97;14.20;;;;;;;4.02;81.27;100373.69;5050771;28;20017;-38
2022/02/27 02:09:39;;;;;;;29.98;14.18;;;;;;;3.90;81.36;100378.28;5032587;28;20048;-36
2022/02/27 02:12:06;;;;;;;26.30;13.63;;;;;;;3.74;81.83;100380.72;5051241;28;20467;-38
2022/02/27 02:14:31;;;;;;;30.10;14.57;;;;;;;3.92;80.95;100373.72;5050928;28;20128;-37
2022/02/27 02:16:57;;;;;;;34.10;14.40;;;;;;;4.08;79.70;100371.28;5051607;28;20021;-37
2022/02/27 02:19:23;;;;;;;28.65;13.98;;;;;;;4.07;79.85;100376.69;5051162;28;20090;-37
2022/02/27 02:21:53;;;;;;;26.65;13.23;;;;;;;3.94;80.41;100378.84;5051573;28;20053;-37
2022/02/27 02:24:19;;;;;;;27.92;13.98;;;;;;;3.69;81.46;100381.13;5051355;28;20502;-37
2022/02/27 02:26:44;;;;;;;29.90;14.82;;;;;;;3.95;80.76;100365.53;5051030;28;20033;-37
2022/02/27 02:29:12;;;;;;;28.48;14.98;;;;;;;3.86;81.78;100364.59;5051363;28;20226;-38
2022/02/27 02:31:38;;;;;;;29.40;13.65;;;;;;;4.10;80.61;100355.34;5051337;28;20047;-36
2022/02/27 02:34:08;;;;;;;31.23;15.27;;;;;;;4.01;81.31;100353.59;5051344;28;20047;-36
2022/02/27 02:36:33;;;;;;;29.58;14.88;;;;;;;3.99;82.14;100356.34;5065370;28;20476;-47
2022/02/27 02:38:59;;;;;;;39.10;16.10;;;;;;;3.85;82.80;100344.50;5070757;28;20029;-50
2022/02/27 02:41:24;;;;;;;33.50;16.05;;;;;;;3.72;84.19;100351.91;5071067;28;20491;-50
2022/02/27 02:43:50;;;;;;;36.53;16.20;;;;;;;3.51;85.18;100360.81;5071045;28;20163;-48
2022/02/27 02:46:15;;;;;;;41.22;17.65;;;;;;;3.65;86.38;100359.53;5070884;28;20027;-49
2022/02/27 02:48:41;;;;;;;38.78;16.38;;;;;;;3.63;85.59;100373.81;5071171;28;20013;-50
2022/02/27 02:51:06;;;;;;;36.15;16.50;;;;;;;3.80;84.73;100359.09;5052966;28;20029;-49
2022/02/27 02:53:39;;;;;;;36.58;16.75;;;;;;;3.61;86.13;100368.69;5071124;28;20035;-51
2022/02/27 02:56:07;;;;;;;37.47;14.80;;;;;;;3.92;84.57;100378.97;5071751;28;20492;-49
2022/02/27 02:58:33;;;;;;;39.80;17.98;;;;;;;4.10;83.47;100394.84;5074921;28;20051;-50
2022/02/27 03:00:59;;;;;;;44.53;16.90;;;;;;;4.02;83.71;100389.50;5070735;28;20053;-50
2022/02/27 03:03:25;;;;;;;37.22;17.17;;;;;;;4.14;83.21;100392.78;5054777;28;20082;-51
2022/02/27 03:05:50;;;;;;;40.80;16.70;;;;;;;3.88;84.28;100393.41;5055068;28;20460;-49
2022/02/27 03:08:16;;;;;;;32.08;13.27;;;;;;;3.77;83.85;100383.91;5054826;28;20028;-49
2022/02/27 03:10:41;;;;;;;37.92;15.27;;;;;;;3.71;84.17;100373.94;5054969;28;20369;-51
2022/02/27 03:13:07;;;;;;;37.72;16.92;;;;;;;3.84;83.67;100361.28;5054854;28;20036;-50
2022/02/27 03:15:32;;;;;;;38.55;16.98;;;;;;;3.85;84.08;100364.75;5054567;28;20365;-48
2022/02/27 03:17:58;;;;;;;40.47;16.98;;;;;;;3.88;84.23;100380.25;5054797;28;20032;-50
2022/02/27 03:20:23;;;;;;;37.50;16.02;;;;;;;3.98;83.87;100388.09;5054887;28;20028;-48
2022/02/27 03:22:48;;;;;;;44.55;17.45;;;;;;;4.08;83.53;100396.81;5054542;28;20085;-51
2022/02/27 03:25:14;;;;;;;45.72;18.38;;;;;;;4.17;83.51;100390.69;5054556;28;20025;-48
2022/02/27 03:27:39;;;;;;;44.75;17.20;;;;;;;3.87;84.74;100391.78;5054370;28;20052;-48
2022/02/27 03:30:05;;;;;;;35.38;14.48;;;;;;;3.76;85.75;100398.03;5054333;28;20021;-49
2022/02/27 03:32:31;;;;;;;47.08;18.55;;;;;;;4.01;85.27;100401.00;5054250;28;20025;-49
2022/02/27 03:34:56;;;;;;;49.95;17.30;;;;;;;3.92;85.00;100407.94;5055302;28;20059;-50
2022/02/27 03:37:22;;;;;;;41.90;16.13;;;;;;;3.94;84.70;100418.34;5073998;28;20024;-49
2022/02/27 03:39:47;;;;;;;49.58;18.17;;;;;;;3.90;85.85;100426.56;5073992;28;20188;-52
2022/02/27 03:42:13;;;;;;;43.13;18.15;;;;;;;3.88;85.34;100431.13;5074146;28;20078;-51
2022/02/27 03:44:38;;;;;;;44.15;17.77;;;;;;;4.00;84.94;100430.94;5074234;28;20023;-51
2022/02/27 03:47:04;;;;;;;47.38;19.15;;;;;;;3.88;85.52;100415.31;5074225;28;20021;-50
2022/02/27 03:49:29;;;;;;;44.03;16.88;;;;;;;3.72;86.95;100409.81;5073885;28;20017;-51
2022/02/27 03:51:55;;;;;;;40.42;17.17;;;;;;;3.80;86.29;100417.81;5074023;28;20473;-50
2022/02/27 03:54:21;;;;;;;43.72;18.88;;;;;;;4.04;85.24;100416.53;5074071;28;20446;-51
2022/02/27 03:56:47;;;;;;;42.38;17.08;;;;;;;3.77;86.18;100412.88;5074494;28;20024;-50
2022/02/27 03:59:12;;;;;;;48.13;17.60;;;;;;;3.90;86.00;100418.66;5055936;28;20032;-50
2022/02/27 04:01:38;;;;;;;44.45;17.48;;;;;;;4.01;85.52;100422.88;5064520;28;20478;-49
2022/02/27 04:04:04;;;;;;;41.80;17.02;;;;;;;3.70;87.10;100412.59;5054056;28;20401;-48
2022/02/27 04:06:29;;;;;;;47.97;18.98;;;;;;;3.91;86.70;100414.19;5053453;28;20024;-50
2022/02/27 04:08:55;;;;;;;49.20;17.63;;;;;;;3.84;86.49;100413.09;5052967;28;20107;-48
2022/02/27 04:11:20;;;;;;;42.92;17.50;;;;;;;3.66;87.37;100410.41;5053518;28;20036;-48
2022/02/27 04:13:46;;;;;;;49.78;19.63;;;;;;;3.80;87.73;100420.47;5053690;28;20047;-50
2022/02/27 04:16:12;;;;;;;47.67;18.85;;;;;;;3.91;86.99;100432.63;5035868;28;20025;-49
2022/02/27 04:18:38;;;;;;;53.03;21.25;;;;;;;3.96;87.11;100419.88;5053641;28;20028;-51
2022/02/27 04:21:04;;;;;;;45.55;18.20;;;;;;;3.90;86.68;100415.16;5053517;28;20025;-48
2022/02/27 04:23:29;;;;;;;52.63;17.10;;;;;;;3.79;87.22;100418.81;5053208;28;20068;-51
2022/02/27 04:25:55;;;;;;;51.20;20.13;;;;;;;3.89;87.28;100419.59;5053278;28;20021;-48
2022/02/27 04:28:20;;;;;;;46.95;19.70;;;;;;;3.98;86.77;100415.28;5053397;28;20040;-49
2022/02/27 04:30:46;;;;;;;50.90;19.55;;;;;;;3.91;87.35;100420.28;5052892;28;20100;-48
2022/02/27 04:33:11;;;;;;;50.33;20.30;;;;;;;4.13;86.85;100420.91;5052928;28;20318;-48
2022/02/27 04:35:37;;;;;;;56.50;20.75;;;;;;;4.07;86.78;100416.22;5059607;28;20024;-50
2022/02/27 04:38:02;;;;;;;50.70;19.23;;;;;;;3.96;87.22;100435.69;5072961;28;20027;-49
2022/02/27 04:40:27;;;;;;;56.42;21.75;;;;;;;4.03;87.21;100412.22;5072993;28;20029;-50
2022/02/27 04:42:53;;;;;;;44.22;16.88;;;;;;;3.91;87.38;100406.31;5072865;28;20392;-49
2022/02/27 04:45:19;;;;;;;44.28;16.38;;;;;;;3.90;87.53;100408.13;5072614;28;20029;-50
2022/02/27 04:47:44;;;;;;;62.25;20.40;;;;;;;3.78;88.58;100397.91;5072736;28;20028;-49
2022/02/27 04:50:10;;;;;;;61.72;23.48;;;;;;;3.88;88.14;100385.50;5072577;28;20511;-50
2022/02/27 04:52:35;;;;;;;59.80;23.05;;;;;;;3.85;88.63;100384.00;5072798;28;20028;-48
2022/02/27 04:55:01;;;;;;;74.38;25.02;;;;;;;3.93;88.25;100380.66;5072398;28;20029;-48
2022/02/27 04:57:27;;;;;;;65.10;22.58;;;;;;;3.95;87.36;100389.22;5072796;28;20056;-49
2022/02/27 04:59:52;;;;;;;59.95;24.15;;;;;;;3.98;87.18;100424.97;5072296;28;20036;-51
2022/02/27 05:02:18;;;;;;;67.25;24.40;;;;;;;3.92;87.01;100384.25;5057463;28;20036;-50
2022/02/27 05:04:43;;;;;;;73.43;25.15;;;;;;;4.21;86.70;100421.03;5052217;28;20154;-48
2022/02/27 05:07:08;;;;;;;66.78;23.30;;;;;;;4.32;85.44;100433.16;5052250;28;20029;-49
2022/02/27 05:09:34;;;;;;;65.38;24.15;;;;;;;4.17;85.89;100416.16;5052688;28;20032;-50
2022/02/27 05:11:59;;;;;;;66.13;24.13;;;;;;;4.33;85.04;100426.09;5052446;28;20410;-48
2022/02/27 05:14:25;;;;;;;63.20;24.45;;;;;;;4.25;85.92;100437.38;5052304;28;20404;-47
2022/02/27 05:16:50;;;;;;;71.93;25.27;;;;;;;4.21;86.47;100441.28;5052335;28;20025;-47
2022/02/27 05:19:16;;;;;;;64.07;24.63;;;;;;;4.42;85.07;100448.94;5052398;28;20392;-48
2022/02/27 05:21:41;;;;;;;68.25;25.77;;;;;;;4.60;84.48;100436.63;5052224;28;20029;-48
2022/02/27 05:24:07;;;;;;;72.03;25.23;;;;;;;4.67;83.46;100442.16;5051951;28;20060;-49
2022/02/27 05:26:32;;;;;;;78.75;27.35;;;;;;;4.59;83.67;100445.53;5051497;28;20453;-49
2022/02/27 05:28:58;;;;;;;71.03;25.00;;;;;;;4.74;83.24;100442.38;5052118;28;20024;-48
2022/02/27 05:31:24;;;;;;;70.90;26.27;;;;;;;4.66;83.25;100446.59;5052028;28;20098;-49
2022/02/27 05:33:49;;;;;;;67.40;23.80;;;;;;;4.49;83.98;100444.72;5051933;28;20424;-51
2022/02/27 05:36:15;;;;;;;59.22;23.48;;;;;;;4.70;82.70;100447.09;5063697;28;20029;-50
2022/02/27 05:38:40;;;;;;;64.63;25.15;;;;;;;4.65;83.21;100439.66;5053884;28;20020;-48
2022/02/27 05:41:06;;;;;;;60.67;23.42;;;;;;;4.42;84.05;100443.69;5072225;28;20445;-49
2022/02/27 05:43:31;;;;;;;59.60;23.58;;;;;;;4.64;83.03;100447.69;5072033;28;20392;-48
2022/02/27 05:45:56;;;;;;;61.63;23.75;;;;;;;4.58;83.27;100441.22;5071879;28;20016;-49
2022/02/27 05:48:22;;;;;;;60.65;24.23;;;;;;;4.86;82.55;100444.66;5071905;28;20017;-48
2022/02/27 05:50:47;;;;;;;60.72;22.67;;;;;;;4.92;81.27;100447.69;5071702;28;20029;-49
2022/02/27 05:53:13;;;;;;;52.67;21.45;;;;;;;4.70;82.15;100452.38;5071424;28;20021;-48
2022/02/27 05:55:38;;;;;;;56.20;22.02;;;;;;;4.66;82.12;100448.38;5070894;28;20028;-50
2022/02/27 05:58:04;;;;;;;53.63;22.10;;;;;;;4.66;82.27;100445.75;5071134;28;20024;-48
2022/02/27 06:00:29;;;;;;;50.70;21.02;;;;;;;4.65;82.02;100462.56;5070891;28;20024;-48
2022/02/27 06:02:55;;;;;;;51.53;20.75;;;;;;;4.67;81.83;100460.59;5051289;28;20029;-49
2022/02/27 06:05:20;;;;;;;50.35;19.65;;;;;;;4.79;81.30;100462.03;5051308;28;20035;-48
2022/02/27 06:07:46;;;;;;;46.90;19.27;;;;;;;4.71;81.38;100461.97;5051097;28;20549;-47
2022/02/27 06:10:12;;;;;;;50.53;20.45;;;;;;;4.66;81.61;100459.78;5050898;28;20016;-49
2022/02/27 06:12:38;;;;;;;47.20;19.77;;;;;;;4.58;82.22;100454.41;5051300;28;20024;-49
2022/02/27 06:15:04;;;;;;;46.75;19.95;;;;;;;4.67;81.86;100455.34;5051271;28;20024;-48
2022/02/27 06:17:29;;;;;;;39.25;18.85;;;;;;;4.43;82.77;100443.50;5051307;28;20025;-47
2022/02/27 06:19:55;;;;;;;39.65;17.98;;;;;;;4.49;82.16;100450.00;5051405;28;20131;-49
2022/02/27 06:22:20;;;;;;;48.33;18.88;;;;;;;4.35;82.75;100450.50;5051306;28;20072;-47
2022/02/27 06:24:46;;;;;;;41.42;18.70;;;;;;;4.65;81.83;100442.28;5051188;28;20036;-37
2022/02/27 06:27:12;;;;;;;39.53;17.05;;;;;;;4.41;82.08;100457.81;5033080;28;20037;-37
2022/02/27 06:29:37;;;;;;;40.03;18.67;;;;;;;4.62;81.63;100458.38;5051291;28;20036;-37
2022/02/27 06:32:03;;;;;;;36.55;16.80;;;;;;;4.64;80.72;100458.25;5050838;28;20029;-36
2022/02/27 06:34:29;;;;;;;33.90;16.63;;;;;;;4.54;80.93;100468.84;5051140;28;20117;-37
2022/02/27 06:36:54;;;;;;;37.67;17.70;;;;;;;4.85;79.96;100471.16;5068512;28;20025;-37
2022/02/27 06:39:20;;;;;;;38.45;18.08;;;;;;;4.96;79.55;100460.41;5071081;28;20032;-37
2022/02/27 06:41:45;;;;;;;35.90;16.55;;;;;;;4.89;79.62;100461.97;5071296;28;20040;-37
2022/02/27 06:44:10;;;;;;;35.15;16.73;;;;;;;4.74;79.95;100468.75;5071208;28;20033;-37
2022/02/27 06:46:36;;;;;;;34.25;16.02;;;;;;;4.86;79.04;100465.75;5071072;28;20036;-37
2022/02/27 06:49:01;;;;;;;37.53;17.98;;;;;;;5.18;78.00;100460.94;5071266;28;20040;-37
2022/02/27 06:51:27;;;;;;;34.88;16.70;;;;;;;4.92;78.85;100452.97;5070960;28;20032;-38
2022/02/27 06:53:52;;;;;;;29.05;14.05;;;;;;;4.94;78.21;100446.53;5070586;28;20461;-38
2022/02/27 06:56:18;;;;;;;28.98;14.32;;;;;;;5.02;78.43;100451.88;5070455;28;20032;-37
2022/02/27 06:58:43;;;;;;;32.15;16.80;;;;;;;5.05;79.56;100451.59;5056363;28;20029;-37
2022/02/27 07:01:09;;;;;;;32.20;14.93;;;;;;;5.61;76.65;100460.16;5050223;28;20032;-37
2022/02/27 07:03:34;;;;;;;31.77;14.88;;;;;;;5.46;75.90;100449.34;5050183;28;20052;-37
2022/02/27 07:06:00;;;;;;;31.45;16.10;;;;;;;5.25;76.40;100451.44;5031635;28;20520;-37
2022/02/27 07:08:27;;;;;;;28.85;14.82;;;;;;;5.51;75.26;100455.97;5050204;28;20102;-38
2022/02/27 07:10:54;;;;;;;30.20;14.38;;;;;;;4.96;76.51;100472.78;5050299;28;20055;-37
2022/02/27 07:13:20;;;;;;;29.23;15.07;;;;;;;5.01;76.76;100454.72;5050359;28;20025;-38
2022/02/27 07:15:45;;;;;;;22.85;13.90;;;;;;;5.06;76.36;100465.63;5050014;28;20029;-38
2022/02/27 07:18:11;;;;;;;24.13;12.50;;;;;;;5.11;75.81;100452.00;5049932;28;20457;-37
2022/02/27 07:20:36;;;;;;;28.67;15.40;;;;;;;5.15;75.76;100450.72;5050163;28;20385;-37
2022/02/27 07:23:02;;;;;;;24.58;13.68;;;;;;;4.85;77.48;100450.88;5049973;28;20060;-37
2022/02/27 07:25:27;;;;;;;27.17;14.80;;;;;;;5.53;75.02;100441.63;5050158;28;20433;-38
2022/02/27 07:27:53;;;;;;;26.33;14.75;;;;;;;5.47;74.36;100440.41;5049899;28;20044;-39
2022/02/27 07:30:18;;;;;;;27.15;15.00;;;;;;;5.16;75.95;100444.44;5050215;28;20099;-38
2022/02/27 07:32:44;;;;;;;26.60;13.60;;;;;;;5.32;75.28;100447.22;5050262;28;20159;-38
2022/02/27 07:35:09;;;;;;;23.13;13.57;;;;;;;5.26;75.75;100424.09;5049834;28;20464;-38
2022/02/27 07:37:34;;;;;;;28.27;13.50;;;;;;;5.18;75.68;100424.00;5049894;28;20082;-38
2022/02/27 07:40:00;;;;;;;24.13;14.45;;;;;;;5.17;76.15;100417.06;5049744;28;20028;-37
2022/02/27 07:42:26;;;;;;;26.20;13.90;;;;;;;5.10;77.68;100427.38;5049909;28;20025;-38
2022/02/27 07:44:52;;;;;;;28.77;14.23;;;;;;;5.67;80.04;100419.94;5052974;28;20033;-38
2022/02/27 07:47:18;;;;;;;28.92;14.48;;;;;;;6.37;72.31;100419.00;5039001;28;20048;-38
2022/02/27 07:49:43;;;;;;;26.10;13.63;;;;;;;6.11;72.17;100418.22;5073214;28;20081;-38
2022/02/27 07:52:09;;;;;;;26.33;14.13;;;;;;;6.16;72.57;100421.22;5072997;28;20032;-38
2022/02/27 07:54:34;;;;;;;24.52;12.75;;;;;;;6.57;70.81;100406.34;5073300;28;20036;-39
2022/02/27 07:57:00;;;;;;;24.15;12.82;;;;;;;5.96;71.67;100402.13;5072979;28;20353;-37
2022/02/27 07:59:25;;;;;;;29.27;15.45;;;;;;;6.00;72.60;100398.22;5073054;28;20029;-38
2022/02/27 08:01:51;;;;;;;28.13;15.88;;;;;;;6.05;74.14;100403.81;5061560;28;20110;-39
2022/02/27 08:04:16;;;;;;;28.70;14.63;;;;;;;5.94;74.57;100396.13;5047521;28;20099;-38
2022/02/27 08:06:41;;;;;;;28.52;14.35;;;;;;;7.02;70.91;100407.75;5048746;28;20029;-38
2022/02/27 08:09:07;;;;;;;24.25;13.30;;;;;;;6.86;71.97;100389.22;5052557;28;20028;-38
2022/02/27 08:11:32;;;;;;;24.15;14.07;;;;;;;6.44;71.02;100347.81;5052266;28;20377;-38
2022/02/27 08:13:58;;;;;;;23.52;13.98;;;;;;;7.80;69.87;100377.22;5052116;28;20052;-37
2022/02/27 08:16:24;;;;;;;22.17;12.52;;;;;;;7.18;66.33;100377.81;5034518;28;20024;-37
2022/02/27 08:18:50;;;;;;;26.75;13.10;;;;;;;6.71;69.66;100372.34;5052198;28;20124;-49
2022/02/27 08:21:15;;;;;;;23.92;12.63;;;;;;;6.69;67.98;100366.38;5051927;28;20024;-52
2022/02/27 08:23:40;;;;;;;21.52;13.52;;;;;;;5.83;71.21;100374.31;5051551;28;20044;-48
2022/02/27 08:26:06;;;;;;;20.00;10.82;;;;;;;5.89;73.42;100375.50;5051169;28;20465;-50
2022/02/27 08:28:31;;;;;;;27.73;14.00;;;;;;;5.59;72.97;100371.53;5051345;28;20534;-50
2022/02/27 08:30:58;;;;;;;25.30;14.25;;;;;;;5.79;72.56;100374.78;5033683;28;20029;-50
2022/02/27 08:33:23;;;;;;;29.33;15.18;;;;;;;5.40;73.83;100381.28;5051825;28;20033;-50
2022/02/27 08:35:49;;;;;;;24.88;14.25;;;;;;;5.13;75.13;100376.16;5060490;28;20029;-49
2022/02/27 08:38:14;;;;;;;29.00;15.25;;;;;;;5.73;74.14;100370.97;5071732;28;20029;-49
2022/02/27 08:40:40;;;;;;;25.48;13.82;;;;;;;5.27;75.69;100372.94;5071836;28;20066;-48
2022/02/27 08:43:05;;;;;;;24.35;14.75;;;;;;;4.89;77.18;100370.50;5071878;28;20034;-49
2022/02/27 08:45:31;;;;;;;26.02;14.85;;;;;;;4.72;78.40;100363.41;5071550;28;20398;-52
2022/02/27 08:47:56;;;;;;;28.63;15.48;;;;;;;4.76;79.12;100358.66;5062058;28;20107;-49
2022/02/27 08:50:22;;;;;;;29.20;15.73;;;;;;;4.96;79.10;100362.81;5045633;28;20090;-49
2022/02/27 08:52:47;;;;;;;31.98;16.02;;;;;;;5.02;78.88;100354.28;5033439;28;20450;-49
2022/02/27 08:55:15;;;;;;;29.85;16.48;;;;;;;4.92;79.48;100353.56;5030946;28;20079;-49
2022/02/27 08:57:41;;;;;;;30.38;16.92;;;;;;;4.80;79.84;100344.22;5031240;28;20355;-50
2022/02/27 09:00:07;;;;;;;29.08;16.48;;;;;;;5.09;78.64;100344.78;5031686;28;20095;-52
2022/02/27 09:02:33;;;;;;;27.98;15.43;;;;;;;5.60;76.74;100337.03;5042668;28;20033;-50
2022/02/27 09:04:58;;;;;;;27.35;15.65;;;;;;;5.51;77.38;100347.72;5031830;28;20072;-51
2022/02/27 09:07:25;;;;;;;29.83;15.35;;;;;;;5.15;78.27;100340.69;5031426;28;20029;-50
2022/02/27 09:09:51;;;;;;;24.27;12.75;;;;;;;5.26;77.94;100331.72;5031068;28;20095;-52
2022/02/27 09:12:17;;;;;;;28.23;14.05;;;;;;;4.96;80.01;100330.34;5030262;28;20640;-49
2022/02/27 09:14:42;;;;;;;26.90;15.00;;;;;;;4.96;80.94;100331.16;5030283;28;20525;-49
2022/02/27 09:17:08;;;;;;;29.73;15.82;;;;;;;5.57;79.05;100323.31;5030262;28;20590;-53
2022/02/27 09:19:33;;;;;;;25.92;15.38;;;;;;;5.61;77.61;100317.56;5029856;28;20108;-54
2022/02/27 09:21:59;;;;;;;27.17;16.10;;;;;;;5.49;79.31;100310.91;5029916;28;20430;-52
2022/02/27 09:24:24;;;;;;;30.10;16.23;;;;;;;5.47;79.99;100321.63;5011805;28;20354;-49
2022/02/27 09:26:50;;;;;;;31.83;15.35;;;;;;;5.67;79.40;100319.59;5029965;28;20025;-50
2022/02/27 09:29:15;;;;;;;24.27;13.18;;;;;;;5.41;79.82;100318.78;5030484;28;20036;-51
2022/02/27 09:31:41;;;;;;;28.73;15.82;;;;;;;5.76;78.28;100312.53;5031062;28;20025;-53
2022/02/27 09:34:07;;;;;;;23.90;13.13;;;;;;;5.74;78.68;100311.84;5031233;28;20156;-53
2022/02/27 09:36:32;;;;;;;25.38;15.65;;;;;;;5.86;77.80;100305.31;5059647;28;20025;-53
2022/02/27 09:38:58;;;;;;;24.95;13.30;;;;;;;5.77;77.54;100303.63;5071007;28;20032;-52
2022/02/27 09:41:23;;;;;;;25.58;14.90;;;;;;;5.60;79.13;100302.72;5070700;28;20486;-54
2022/02/27 09:43:53;;;;;;;21.88;12.55;;;;;;;5.30;79.65;100311.94;5070692;28;20100;-53
2022/02/27 09:46:20;;;;;;;24.08;14.07;;;;;;;5.51;79.39;100297.56;5070638;28;20020;-53
2022/02/27 09:48:46;;;;;;;21.02;11.70;;;;;;;5.12;79.40;100303.25;5070434;28;20028;-52
2022/02/27 09:51:12;;;;;;;23.90;13.82;;;;;;;5.12;80.75;100287.41;5070861;28;20024;-55
2022/02/27 09:53:38;;;;;;;23.70;13.48;;;;;;;5.03;80.44;100295.28;5070752;28;20589;-53
2022/02/27 09:56:03;;;;;;;23.48;14.13;;;;;;;5.14;80.43;100286.28;5052850;28;20024;-51
2022/02/27 09:58:29;;;;;;;27.73;17.02;;;;;;;5.06;81.60;100296.78;5070483;28;20021;-51
2022/02/27 10:00:54;;;;;;;28.58;15.23;;;;;;;4.94;82.28;100300.66;5066830;28;20044;-52
2022/02/27 10:03:25;;;;;;;25.35;14.65;;;;;;;5.01;83.49;100291.97;5050325;28;20025;-51
2022/02/27 10:05:51;;;;;;;27.58;14.68;;;;;;;4.97;83.47;100287.13;5049906;28;20162;-51
2022/02/27 10:08:16;;;;;;;26.58;14.73;;;;;;;4.92;84.60;100282.34;5050418;28;20033;-49
2022/02/27 10:10:58;;;;;;;28.48;15.70;;;;;;;5.75;82.66;100273.91;5050414;28;20028;-51
2022/02/27 10:13:33;;;;;;;25.65;14.00;;;;;;;5.33;82.75;100271.22;5050428;28;20708;-51
2022/02/27 10:16:11;;;;;;;28.00;14.60;;;;;;;5.05;83.68;100274.84;5050515;28;20036;-49
2022/02/27 10:18:41;;;;;;;25.15;14.57;;;;;;;5.06;83.23;100262.47;5050387;28;20021;-52
2022/02/27 10:21:25;;;;;;;27.60;15.45;;;;;;;5.01;84.30;100273.50;5050573;28;20505;-54
2022/02/27 10:24:02;;;;;;;24.98;14.55;;;;;;;5.03;84.05;100268.91;5050337;28;20052;-51
2022/02/27 10:26:28;;;;;;;29.55;15.32;;;;;;;5.05;84.37;100266.09;5049277;28;20523;-38
2022/02/27 10:29:09;;;;;;;27.73;16.48;;;;;;;5.32;84.53;100270.38;5049940;28;20024;-39
2022/02/27 10:31:35;;;;;;;25.50;14.57;;;;;;;5.29;84.39;100257.50;5050174;28;20029;-39
2022/02/27 10:34:15;;;;;;;28.77;15.73;;;;;;;5.24;84.63;100254.53;5050109;28;20492;-38
2022/02/27 10:36:59;;;;;;;28.83;15.93;;;;;;;5.39;84.81;100252.13;5065844;28;20149;-52
2022/02/27 10:39:28;;;;;;;25.88;14.43;;;;;;;5.24;84.68;100254.53;5070146;28;20028;-52
2022/02/27 10:41:54;;;;;;;29.08;16.95;;;;;;;5.42;84.55;100247.34;5069887;28;20024;-52
2022/02/27 10:44:23;;;;;;;27.02;15.35;;;;;;;5.32;84.08;100245.81;5070079;28;20031;-54
2022/02/27 10:46:49;;;;;;;28.63;16.00;;;;;;;5.25;84.42;100248.25;5070302;28;20024;-54
2022/02/27 10:49:31;;;;;;;29.65;15.85;;;;;;;5.11;84.90;100238.28;5052108;28;20032;-52
2022/02/27 10:52:18;;;;;;;29.70;16.83;;;;;;;5.27;85.11;100233.06;5051957;28;20029;-53
2022/02/27 10:54:49;;;;;;;28.95;16.30;;;;;;;5.34;84.27;100234.09;5069759;28;20404;-53
2022/02/27 10:57:48;;;;;;;27.83;15.45;;;;;;;5.43;84.58;100233.16;5069899;28;20477;-52
2022/02/27 11:00:15;;;;;;;26.08;14.95;;;;;;;5.37;84.61;100235.59;5051425;28;20052;-50
2022/02/27 11:02:52;;;;;;;26.50;14.73;;;;;;;5.28;85.14;100221.56;5052396;28;20483;-53
2022/02/27 11:05:19;;;;;;;28.23;15.27;;;;;;;5.44;85.02;100216.31;5050552;28;20028;-53
2022/02/27 11:07:47;;;;;;;28.73;15.55;;;;;;;5.25;85.47;100216.56;5050511;28;20434;-53
2022/02/27 11:10:19;;;;;;;27.42;15.07;;;;;;;5.25;85.25;100208.66;5050476;28;20017;-53
2022/02/27 11:12:44;;;;;;;29.95;16.20;;;;;;;5.33;85.75;100216.63;5050631;28;20047;-51